Share

Antigo, WI

12:07 AM CDT on April 25, 2014 (GMT -0500)
Langlade County (KAIG) Elev 1522 ft | 45.16 °N, 89.11 °W | Change Station

Current weather conditions updated 32 minutes ago

Light Snow
Light Snow
36 °F
Feels Like 25 °F
N
20
Wind Variable Wind from SE
Gusts 26 mph
Sunrise 5:54 AM
Sunset 7:54 PM
Moon Waning Crescent

Today is forecast to be Much Cooler than yesterday.

Pressure 29.69 in
Visibility 3.0 miles
Clouds Mostly Cloudy 2800 ft
Mostly Cloudy 3400 ft
Overcast 4200 ft
Windchill 25 °F
Dew Point 34 °F
Humidity 95%
Rainfall 0.48 in
Snow Depth Not available.
UV 0 out of 16
Pollen 1.00 out of 12
Air Quality Not available.
Flu Activity Sporadic
METAR KAIG 250435Z AUTO 13017G23KT 3SM -SN BKN028 BKN034 OVC042 02/01 A2969 RMK AO2 T00210014

More Conditions Fewer Conditions

Pressure 29.69 in
Visibility 3.0 miles
Clouds Mostly Cloudy 2800 ft
Mostly Cloudy 3400 ft
Overcast 4200 ft
Windchill 25 °F
Dew Point 34 °F
Humidity 95%
Rainfall 0.48 in
Snow Depth Not available.
UV 0 out of 16
Pollen 1.00 out of 12
Air Quality Not available.
Flu Activity Sporadic
METAR KAIG 250435Z AUTO 13017G23KT 3SM -SN BKN028 BKN034 OVC042 02/01 A2969 RMK AO2 T00210014

More Conditions Fewer Conditions

10-Day Weather Forecast

Almanac

Astronomy

Apr. 25, 2014 Rise Set
Actual Time 5:54 AM CDT 7:54 PM CDT
Civil Twilight 5:22 AM CDT 8:26 PM CDT
Nautical Twilight 4:43 AM CDT 9:06 PM CDT
Astronomical Twilight 4:01 AM CDT 9:49 PM CDT
Moon 3:54 AM CDT 4:07 PM CDT
Length of Visible Light 15h 03m
Length of Day
14h 00m
Tomorrow will be 2m 52s longer.
Waning Crescent, 19% of the Moon is Illuminated
Today
Waning Crescent
Apr 29
New
May 6
First Quarter
May 14
Full
May 21
Last Quarter

Today's Extremes

State Highs State Lows

Community

  • Deer in evening light
    Deer in evening light
  • Critter
    Critter
  • Jone Runs Falls
    Jone Runs Falls
  • Easter in Shenandoah National Park
    Easter in Shenandoah National Park
  • Sunset at Apalachicola Bay, Florida
    Sunset at Apalachicola Bay, Florida

WunderPhotos

Upload Photos

1,704,858 photos uploaded!

WunderBlogs® & News

Nearby

Snow Depth

Station Depth Elevation
No new snow has been reported.

Coastal Water Temperatures

Place Temperature
No Stations Reporting

Earthquake Activity

City Distance Mag. Time & Date
No recent earthquake activity has been reported nearby.
Minimum magnitude displayed is 2.5.

Nearby Weather Stations

Station Location Temp. Windchill Dew Point Humidity Wind Precip. Elev Updated Type
RAWS ANTIGO WI, Antigo, WI 36 °F 26 °F 36 °F 100% ESE  at  17 mph 0.02 in / hr 1499 ft 11:05 PM CDT MADIS
GLEASON, WI 37.9 °F 38 °F 38 °F 99% SSE  at  0.7 mph 0.02 in / hr 1605 ft 12:07 AM CDT Rapid Fire

Show More Stations Show Fewer Stations

What do you think?

We're not finished. Please let us know what you like, what you don't like, and what you are still missing.